Terminal Aerodrome Forecast
Issued by NWS

Home | Current Version | Previous Version | Text Only | Print | Product List | Glossary On
Versions: 1 2 3 4 5 6 7 8 9 10 11 12
000
FTUS46 KMTR 281100
TAFMRY
TAF
KMRY 281120Z 2812/2912 11004KT P6SM SCT250
     FM281800 32005KT P6SM FEW250
     FM290400 11004KT P6SM FEW250=

USA.gov is the U.S. government's official web portal to all federal, state and local government web resources and services.